sensor_id;sensor_type;location;lat;lon;timestamp;pressure;altitude;pressure_sealevel;temperature;humidity
68476;BME280;55464;48.266;14.188;2024-02-21T00:00:52;98736.09;;;12.17;47.05
68476;BME280;55464;48.266;14.188;2024-02-21T00:03:18;98736.22;;;12.21;47.18
68476;BME280;55464;48.266;14.188;2024-02-21T00:05:43;98725.88;;;12.09;47.01
68476;BME280;55464;48.266;14.188;2024-02-21T00:08:09;98724.59;;;12.06;47.39
68476;BME280;55464;48.266;14.188;2024-02-21T00:10:34;98732.34;;;12.13;46.96
68476;BME280;55464;48.266;14.188;2024-02-21T00:13:01;98728.16;;;12.07;47.16
68476;BME280;55464;48.266;14.188;2024-02-21T00:15:27;98725.91;;;12.00;47.09
68476;BME280;55464;48.266;14.188;2024-02-21T00:17:52;98725.28;;;11.95;47.45
68476;BME280;55464;48.266;14.188;2024-02-21T00:20:18;98712.41;;;11.90;47.56
68476;BME280;55464;48.266;14.188;2024-02-21T00:22:45;98723.63;;;12.02;47.36
68476;BME280;55464;48.266;14.188;2024-02-21T00:25:11;98714.22;;;11.86;48.18
68476;BME280;55464;48.266;14.188;2024-02-21T00:27:36;98697.81;;;11.89;47.38
68476;BME280;55464;48.266;14.188;2024-02-21T00:30:02;98715.03;;;11.95;47.76
68476;BME280;55464;48.266;14.188;2024-02-21T00:32:28;98720.69;;;12.07;47.00
68476;BME280;55464;48.266;14.188;2024-02-21T00:34:54;98709.34;;;12.00;46.97
68476;BME280;55464;48.266;14.188;2024-02-21T00:37:19;98707.38;;;12.01;46.98
68476;BME280;55464;48.266;14.188;2024-02-21T00:39:45;98695.69;;;11.86;46.80
68476;BME280;55464;48.266;14.188;2024-02-21T00:42:10;98701.50;;;12.02;46.74
68476;BME280;55464;48.266;14.188;2024-02-21T00:44:36;98704.81;;;11.96;47.22
68476;BME280;55464;48.266;14.188;2024-02-21T00:47:01;98688.38;;;11.99;47.40
68476;BME280;55464;48.266;14.188;2024-02-21T00:49:27;98695.22;;;11.93;47.16
68476;BME280;55464;48.266;14.188;2024-02-21T00:51:52;98690.03;;;11.91;47.30
68476;BME280;55464;48.266;14.188;2024-02-21T00:54:18;98685.66;;;11.82;47.46
68476;BME280;55464;48.266;14.188;2024-02-21T00:56:43;98692.13;;;11.95;47.21
68476;BME280;55464;48.266;14.188;2024-02-21T00:59:09;98695.84;;;11.90;47.74
68476;BME280;55464;48.266;14.188;2024-02-21T01:01:34;98691.16;;;11.99;47.45
68476;BME280;55464;48.266;14.188;2024-02-21T01:04:00;98698.19;;;11.70;49.26
68476;BME280;55464;48.266;14.188;2024-02-21T01:06:25;98692.22;;;11.60;49.45
68476;BME280;55464;48.266;14.188;2024-02-21T01:08:51;98699.38;;;11.61;49.63
68476;BME280;55464;48.266;14.188;2024-02-21T01:11:17;98693.03;;;11.51;50.08
68476;BME280;55464;48.266;14.188;2024-02-21T01:13:43;98696.75;;;11.64;49.41
68476;BME280;55464;48.266;14.188;2024-02-21T01:16:09;98693.31;;;11.67;49.28
68476;BME280;55464;48.266;14.188;2024-02-21T01:18:37;98689.78;;;11.58;49.54
68476;BME280;55464;48.266;14.188;2024-02-21T01:21:03;98694.03;;;11.56;49.27
68476;BME280;55464;48.266;14.188;2024-02-21T01:23:32;98688.19;;;11.57;49.14
68476;BME280;55464;48.266;14.188;2024-02-21T01:25:58;98697.38;;;11.79;48.56
68476;BME280;55464;48.266;14.188;2024-02-21T01:28:23;98671.59;;;11.66;48.96
68476;BME280;55464;48.266;14.188;2024-02-21T01:30:49;98681.50;;;11.58;48.72
68476;BME280;55464;48.266;14.188;2024-02-21T01:33:14;98680.09;;;11.43;49.48
68476;BME280;55464;48.266;14.188;2024-02-21T01:35:40;98685.88;;;11.68;48.25
68476;BME280;55464;48.266;14.188;2024-02-21T01:38:05;98675.19;;;11.58;49.22
68476;BME280;55464;48.266;14.188;2024-02-21T01:40:31;98674.31;;;11.75;48.61
68476;BME280;55464;48.266;14.188;2024-02-21T01:42:56;98671.75;;;11.69;48.32
68476;BME280;55464;48.266;14.188;2024-02-21T01:45:22;98658.06;;;11.73;48.57
68476;BME280;55464;48.266;14.188;2024-02-21T01:47:49;98654.13;;;11.83;48.39
68476;BME280;55464;48.266;14.188;2024-02-21T01:50:15;98660.13;;;11.85;48.19
68476;BME280;55464;48.266;14.188;2024-02-21T01:52:43;98654.44;;;11.81;48.63
68476;BME280;55464;48.266;14.188;2024-02-21T01:55:12;98657.03;;;11.95;48.23
68476;BME280;55464;48.266;14.188;2024-02-21T01:57:39;98655.75;;;11.84;48.67
68476;BME280;55464;48.266;14.188;2024-02-21T02:00:06;98660.50;;;11.75;48.93
68476;BME280;55464;48.266;14.188;2024-02-21T02:02:32;98644.78;;;11.66;49.68
68476;BME280;55464;48.266;14.188;2024-02-21T02:04:58;98647.69;;;11.70;49.49
68476;BME280;55464;48.266;14.188;2024-02-21T02:07:24;98640.25;;;11.53;49.49
68476;BME280;55464;48.266;14.188;2024-02-21T02:09:50;98639.44;;;11.61;48.81
68476;BME280;55464;48.266;14.188;2024-02-21T02:12:15;98630.25;;;11.40;49.55
68476;BME280;55464;48.266;14.188;2024-02-21T02:14:41;98647.06;;;11.64;49.17
68476;BME280;55464;48.266;14.188;2024-02-21T02:17:06;98635.81;;;11.78;48.54
68476;BME280;55464;48.266;14.188;2024-02-21T02:19:32;98625.91;;;11.68;48.38
68476;BME280;55464;48.266;14.188;2024-02-21T02:22:09;98638.03;;;11.85;48.25
68476;BME280;55464;48.266;14.188;2024-02-21T02:24:37;98628.59;;;11.86;48.11
68476;BME280;55464;48.266;14.188;2024-02-21T02:27:03;98622.97;;;11.73;48.29
68476;BME280;55464;48.266;14.188;2024-02-21T02:29:32;98616.97;;;11.71;48.25
68476;BME280;55464;48.266;14.188;2024-02-21T02:31:57;98610.44;;;11.76;48.08
68476;BME280;55464;48.266;14.188;2024-02-21T02:34:23;98603.31;;;11.75;48.50
68476;BME280;55464;48.266;14.188;2024-02-21T02:36:49;98602.66;;;11.78;48.19
68476;BME280;55464;48.266;14.188;2024-02-21T02:39:14;98606.38;;;11.82;47.52
68476;BME280;55464;48.266;14.188;2024-02-21T02:41:40;98594.84;;;11.80;48.02
68476;BME280;55464;48.266;14.188;2024-02-21T02:44:05;98608.69;;;11.71;48.83
68476;BME280;55464;48.266;14.188;2024-02-21T02:46:31;98606.81;;;11.54;49.38
68476;BME280;55464;48.266;14.188;2024-02-21T02:48:59;98583.53;;;11.26;49.99
68476;BME280;55464;48.266;14.188;2024-02-21T02:51:24;98593.09;;;11.28;50.13
68476;BME280;55464;48.266;14.188;2024-02-21T02:53:50;98585.66;;;11.20;49.90
68476;BME280;55464;48.266;14.188;2024-02-21T02:56:15;98596.81;;;11.32;49.84
68476;BME280;55464;48.266;14.188;2024-02-21T02:58:45;98587.91;;;11.27;50.33
68476;BME280;55464;48.266;14.188;2024-02-21T03:01:11;98589.69;;;11.31;50.23
68476;BME280;55464;48.266;14.188;2024-02-21T03:03:36;98584.34;;;11.26;50.37
68476;BME280;55464;48.266;14.188;2024-02-21T03:06:02;98579.13;;;11.33;49.75
68476;BME280;55464;48.266;14.188;2024-02-21T03:08:28;98563.94;;;11.19;49.91
68476;BME280;55464;48.266;14.188;2024-02-21T03:10:54;98575.28;;;11.17;50.74
68476;BME280;55464;48.266;14.188;2024-02-21T03:13:19;98573.69;;;11.07;50.65
68476;BME280;55464;48.266;14.188;2024-02-21T03:15:45;98567.34;;;11.15;50.16
68476;BME280;55464;48.266;14.188;2024-02-21T03:18:10;98573.19;;;11.14;50.36
68476;BME280;55464;48.266;14.188;2024-02-21T03:20:36;98578.53;;;11.19;50.52
68476;BME280;55464;48.266;14.188;2024-02-21T03:23:02;98572.19;;;11.27;50.05
68476;BME280;55464;48.266;14.188;2024-02-21T03:25:27;98572.28;;;11.40;49.72
68476;BME280;55464;48.266;14.188;2024-02-21T03:27:53;98576.28;;;11.51;49.18
68476;BME280;55464;48.266;14.188;2024-02-21T03:30:18;98559.91;;;11.46;48.67
68476;BME280;55464;48.266;14.188;2024-02-21T03:32:44;98553.69;;;11.58;48.45
68476;BME280;55464;48.266;14.188;2024-02-21T03:35:09;98574.13;;;11.65;47.87
68476;BME280;55464;48.266;14.188;2024-02-21T03:37:35;98572.47;;;11.73;48.09
68476;BME280;55464;48.266;14.188;2024-02-21T03:40:00;98566.81;;;11.69;47.58
68476;BME280;55464;48.266;14.188;2024-02-21T03:42:27;98557.78;;;11.51;48.42
68476;BME280;55464;48.266;14.188;2024-02-21T03:44:55;98558.34;;;11.36;49.07
68476;BME280;55464;48.266;14.188;2024-02-21T03:47:21;98553.03;;;11.22;49.20
68476;BME280;55464;48.266;14.188;2024-02-21T03:49:46;98572.81;;;11.24;49.52
68476;BME280;55464;48.266;14.188;2024-02-21T03:52:12;98556.94;;;11.12;50.44
68476;BME280;55464;48.266;14.188;2024-02-21T03:54:37;98569.72;;;11.34;50.00
68476;BME280;55464;48.266;14.188;2024-02-21T03:57:05;98558.09;;;11.50;49.25
68476;BME280;55464;48.266;14.188;2024-02-21T03:59:30;98567.03;;;11.56;48.56
68476;BME280;55464;48.266;14.188;2024-02-21T04:01:56;98564.09;;;11.61;47.97
68476;BME280;55464;48.266;14.188;2024-02-21T04:04:21;98565.97;;;11.69;47.75
68476;BME280;55464;48.266;14.188;2024-02-21T04:06:50;98563.06;;;11.65;47.93
68476;BME280;55464;48.266;14.188;2024-02-21T04:09:16;98561.19;;;11.57;48.27
68476;BME280;55464;48.266;14.188;2024-02-21T04:11:42;98561.47;;;11.64;47.88
68476;BME280;55464;48.266;14.188;2024-02-21T04:14:08;98565.72;;;11.53;48.29
68476;BME280;55464;48.266;14.188;2024-02-21T04:16:34;98559.38;;;11.61;47.81
68476;BME280;55464;48.266;14.188;2024-02-21T04:19:00;98549.19;;;11.44;48.20
68476;BME280;55464;48.266;14.188;2024-02-21T04:21:27;98541.34;;;11.55;47.35
68476;BME280;55464;48.266;14.188;2024-02-21T04:23:52;98552.84;;;11.66;47.03
68476;BME280;55464;48.266;14.188;2024-02-21T04:26:18;98554.13;;;11.68;47.07
68476;BME280;55464;48.266;14.188;2024-02-21T04:28:45;98552.50;;;11.67;47.51
68476;BME280;55464;48.266;14.188;2024-02-21T04:31:10;98545.38;;;11.66;46.88
68476;BME280;55464;48.266;14.188;2024-02-21T04:33:36;98549.69;;;11.76;47.25
68476;BME280;55464;48.266;14.188;2024-02-21T04:36:01;98549.03;;;11.79;46.92
68476;BME280;55464;48.266;14.188;2024-02-21T04:38:27;98543.84;;;11.78;46.56
68476;BME280;55464;48.266;14.188;2024-02-21T04:40:55;98534.28;;;11.75;46.64
68476;BME280;55464;48.266;14.188;2024-02-21T04:43:24;98547.44;;;11.78;46.75
68476;BME280;55464;48.266;14.188;2024-02-21T04:45:49;98529.38;;;11.51;47.24
68476;BME280;55464;48.266;14.188;2024-02-21T04:48:15;98532.78;;;11.48;47.60
68476;BME280;55464;48.266;14.188;2024-02-21T04:50:41;98521.28;;;11.46;47.41
68476;BME280;55464;48.266;14.188;2024-02-21T04:53:06;98526.00;;;11.45;47.47
68476;BME280;55464;48.266;14.188;2024-02-21T04:55:32;98522.47;;;11.36;48.01
68476;BME280;55464;48.266;14.188;2024-02-21T04:57:57;98531.66;;;11.49;48.28
68476;BME280;55464;48.266;14.188;2024-02-21T05:00:23;98532.41;;;11.58;47.90
68476;BME280;55464;48.266;14.188;2024-02-21T05:02:48;98533.75;;;11.52;47.67
68476;BME280;55464;48.266;14.188;2024-02-21T05:05:14;98526.66;;;11.42;48.61
68476;BME280;55464;48.266;14.188;2024-02-21T05:07:42;98537.28;;;11.61;48.02
68476;BME280;55464;48.266;14.188;2024-02-21T05:10:07;98534.97;;;11.63;48.26
68476;BME280;55464;48.266;14.188;2024-02-21T05:12:34;98523.84;;;11.51;48.18
68476;BME280;55464;48.266;14.188;2024-02-21T05:14:59;98518.31;;;11.51;47.85
68476;BME280;55464;48.266;14.188;2024-02-21T05:17:25;98527.06;;;11.53;48.08
68476;BME280;55464;48.266;14.188;2024-02-21T05:19:50;98506.63;;;11.54;48.03
68476;BME280;55464;48.266;14.188;2024-02-21T05:22:16;98503.19;;;11.57;47.58
68476;BME280;55464;48.266;14.188;2024-02-21T05:24:41;98514.19;;;11.66;47.53
68476;BME280;55464;48.266;14.188;2024-02-21T05:27:07;98508.50;;;11.62;47.11
68476;BME280;55464;48.266;14.188;2024-02-21T05:29:33;98509.47;;;11.66;47.18
68476;BME280;55464;48.266;14.188;2024-02-21T05:31:58;98509.47;;;11.66;47.56
68476;BME280;55464;48.266;14.188;2024-02-21T05:34:24;98507.97;;;11.69;47.31
68476;BME280;55464;48.266;14.188;2024-02-21T05:36:51;98509.47;;;11.66;47.28
68476;BME280;55464;48.266;14.188;2024-02-21T05:39:17;98510.97;;;11.55;47.38
68476;BME280;55464;48.266;14.188;2024-02-21T05:41:42;98500.50;;;11.48;47.64
68476;BME280;55464;48.266;14.188;2024-02-21T05:44:08;98500.63;;;11.52;47.35
68476;BME280;55464;48.266;14.188;2024-02-21T05:46:33;98508.88;;;11.61;47.59
68476;BME280;55464;48.266;14.188;2024-02-21T05:48:59;98501.75;;;11.51;47.18
68476;BME280;55464;48.266;14.188;2024-02-21T05:51:24;98507.91;;;11.57;47.17
68476;BME280;55464;48.266;14.188;2024-02-21T05:53:50;98508.72;;;11.57;47.51
68476;BME280;55464;48.266;14.188;2024-02-21T05:56:15;98496.91;;;11.48;47.06
68476;BME280;55464;48.266;14.188;2024-02-21T05:58:43;98487.91;;;11.30;47.44
68476;BME280;55464;48.266;14.188;2024-02-21T06:01:09;98490.94;;;11.37;47.47
68476;BME280;55464;48.266;14.188;2024-02-21T06:03:34;98501.63;;;11.47;46.99
68476;BME280;55464;48.266;14.188;2024-02-21T06:06:01;98495.44;;;11.50;47.37
68476;BME280;55464;48.266;14.188;2024-02-21T06:08:27;98476.31;;;11.45;47.14
68476;BME280;55464;48.266;14.188;2024-02-21T06:10:52;98477.28;;;11.41;47.06
68476;BME280;55464;48.266;14.188;2024-02-21T06:13:28;98472.28;;;11.34;47.14
68476;BME280;55464;48.266;14.188;2024-02-21T06:15:54;98485.56;;;11.41;46.86
68476;BME280;55464;48.266;14.188;2024-02-21T06:18:20;98487.16;;;11.50;46.88
68476;BME280;55464;48.266;14.188;2024-02-21T06:20:46;98482.09;;;11.52;47.22
68476;BME280;55464;48.266;14.188;2024-02-21T06:23:12;98478.03;;;11.50;47.18
68476;BME280;55464;48.266;14.188;2024-02-21T06:25:38;98485.19;;;11.51;47.00
68476;BME280;55464;48.266;14.188;2024-02-21T06:28:05;98477.44;;;11.44;46.63
68476;BME280;55464;48.266;14.188;2024-02-21T06:30:30;98488.63;;;11.48;46.54
68476;BME280;55464;48.266;14.188;2024-02-21T06:32:56;98493.28;;;11.56;46.69
68476;BME280;55464;48.266;14.188;2024-02-21T06:35:22;98493.28;;;11.56;46.85
68476;BME280;55464;48.266;14.188;2024-02-21T06:37:50;98498.63;;;11.61;46.47
68476;BME280;55464;48.266;14.188;2024-02-21T06:40:22;98492.78;;;11.63;46.64
68476;BME280;55464;48.266;14.188;2024-02-21T06:42:47;98496.84;;;11.57;46.71
68476;BME280;55464;48.266;14.188;2024-02-21T06:45:14;98481.13;;;11.57;47.16
68476;BME280;55464;48.266;14.188;2024-02-21T06:47:40;98486.50;;;11.53;46.78
68476;BME280;55464;48.266;14.188;2024-02-21T06:50:06;98496.06;;;11.56;46.40
68476;BME280;55464;48.266;14.188;2024-02-21T06:52:31;98490.25;;;11.49;46.67
68476;BME280;55464;48.266;14.188;2024-02-21T06:54:57;98478.59;;;11.43;47.22
68476;BME280;55464;48.266;14.188;2024-02-21T06:57:23;98493.09;;;11.61;47.12
68476;BME280;55464;48.266;14.188;2024-02-21T06:59:48;98482.44;;;11.51;47.47
68476;BME280;55464;48.266;14.188;2024-02-21T07:02:14;98499.09;;;11.63;47.06
68476;BME280;55464;48.266;14.188;2024-02-21T07:04:39;98482.25;;;11.56;47.29
68476;BME280;55464;48.266;14.188;2024-02-21T07:07:05;98493.72;;;11.67;46.87
68476;BME280;55464;48.266;14.188;2024-02-21T07:09:30;98491.88;;;11.71;46.92
68476;BME280;55464;48.266;14.188;2024-02-21T07:11:58;98478.63;;;11.64;46.86
68476;BME280;55464;48.266;14.188;2024-02-21T07:14:23;98488.00;;;11.72;46.96
68476;BME280;55464;48.266;14.188;2024-02-21T07:16:49;98480.50;;;11.72;46.73
68476;BME280;55464;48.266;14.188;2024-02-21T07:19:14;98487.00;;;11.77;46.96
68476;BME280;55464;48.266;14.188;2024-02-21T07:21:39;98488.13;;;11.76;46.81
68476;BME280;55464;48.266;14.188;2024-02-21T07:24:07;98483.78;;;11.75;46.94
68476;BME280;55464;48.266;14.188;2024-02-21T07:26:33;98489.75;;;11.77;46.93
68476;BME280;55464;48.266;14.188;2024-02-21T07:28:58;98467.72;;;11.68;47.26
68476;BME280;55464;48.266;14.188;2024-02-21T07:31:24;98475.13;;;11.76;47.38
68476;BME280;55464;48.266;14.188;2024-02-21T07:33:49;98475.25;;;11.80;47.14
68476;BME280;55464;48.266;14.188;2024-02-21T07:36:15;98468.19;;;11.70;47.58
68476;BME280;55464;48.266;14.188;2024-02-21T07:38:41;98458.75;;;11.71;47.44
68476;BME280;55464;48.266;14.188;2024-02-21T07:41:07;98467.88;;;11.71;47.44
68476;BME280;55464;48.266;14.188;2024-02-21T07:43:32;98469.47;;;11.72;48.06
68476;BME280;55464;48.266;14.188;2024-02-21T07:45:58;98456.81;;;11.71;47.12
68476;BME280;55464;48.266;14.188;2024-02-21T07:48:23;98446.41;;;11.47;47.99
68476;BME280;55464;48.266;14.188;2024-02-21T07:50:52;98455.19;;;11.70;47.76
68476;BME280;55464;48.266;14.188;2024-02-21T07:53:17;98461.03;;;11.69;47.79
68476;BME280;55464;48.266;14.188;2024-02-21T07:55:43;98458.22;;;11.78;47.72
68476;BME280;55464;48.266;14.188;2024-02-21T07:58:08;98428.38;;;11.71;47.59
68476;BME280;55464;48.266;14.188;2024-02-21T08:00:34;98442.28;;;11.83;48.42
68476;BME280;55464;48.266;14.188;2024-02-21T08:02:59;98443.19;;;11.96;47.32
68476;BME280;55464;48.266;14.188;2024-02-21T08:05:25;98440.41;;;11.96;47.00
68476;BME280;55464;48.266;14.188;2024-02-21T08:07:50;98434.69;;;12.01;47.28
68476;BME280;55464;48.266;14.188;2024-02-21T08:10:15;98425.56;;;12.01;47.74
68476;BME280;55464;48.266;14.188;2024-02-21T08:12:41;98438.44;;;12.18;47.03
68476;BME280;55464;48.266;14.188;2024-02-21T08:15:06;98439.84;;;12.24;46.83
68476;BME280;55464;48.266;14.188;2024-02-21T08:17:37;98430.81;;;12.15;45.82
68476;BME280;55464;48.266;14.188;2024-02-21T08:20:06;98423.94;;;12.21;46.01
68476;BME280;55464;48.266;14.188;2024-02-21T08:22:31;98429.94;;;12.23;46.14
68476;BME280;55464;48.266;14.188;2024-02-21T08:24:57;98423.59;;;12.22;46.48
68476;BME280;55464;48.266;14.188;2024-02-21T08:27:22;98409.63;;;12.06;46.16
68476;BME280;55464;48.266;14.188;2024-02-21T08:29:47;98430.69;;;12.11;46.27
68476;BME280;55464;48.266;14.188;2024-02-21T08:32:13;98413.84;;;12.04;46.59
68476;BME280;55464;48.266;14.188;2024-02-21T08:34:38;98430.34;;;12.13;46.37
68476;BME280;55464;48.266;14.188;2024-02-21T08:37:13;98423.22;;;12.12;47.06
68476;BME280;55464;48.266;14.188;2024-02-21T08:39:43;98414.09;;;12.11;46.37
68476;BME280;55464;48.266;14.188;2024-02-21T08:42:09;98410.63;;;12.02;46.75
68476;BME280;55464;48.266;14.188;2024-02-21T08:44:35;98408.19;;;12.00;47.26
68476;BME280;55464;48.266;14.188;2024-02-21T08:47:01;98403.84;;;11.99;47.39
68476;BME280;55464;48.266;14.188;2024-02-21T08:49:29;98396.94;;;12.05;46.93
68476;BME280;55464;48.266;14.188;2024-02-21T08:51:54;98403.63;;;12.04;46.74
68476;BME280;55464;48.266;14.188;2024-02-21T08:54:20;98404.69;;;12.12;46.01
68476;BME280;55464;48.266;14.188;2024-02-21T08:56:45;98406.78;;;12.15;47.26
68476;BME280;55464;48.266;14.188;2024-02-21T08:59:11;98403.09;;;12.23;46.95
68476;BME280;55464;48.266;14.188;2024-02-21T09:01:36;98407.06;;;12.35;47.70
68476;BME280;55464;48.266;14.188;2024-02-21T09:04:02;98403.00;;;12.32;47.18
68476;BME280;55464;48.266;14.188;2024-02-21T09:06:28;98412.59;;;12.35;46.51
68476;BME280;55464;48.266;14.188;2024-02-21T09:08:59;98407.09;;;12.47;46.17
68476;BME280;55464;48.266;14.188;2024-02-21T09:11:32;98408.00;;;12.51;46.19
68476;BME280;55464;48.266;14.188;2024-02-21T09:14:34;98410.81;;;12.63;45.95
68476;BME280;55464;48.266;14.188;2024-02-21T09:17:58;98403.47;;;12.67;44.52
68476;BME280;55464;48.266;14.188;2024-02-21T09:21:01;98388.00;;;12.66;45.18
68476;BME280;55464;48.266;14.188;2024-02-21T09:23:49;98388.00;;;12.79;44.14
68476;BME280;55464;48.266;14.188;2024-02-21T09:26:35;98382.94;;;12.81;43.94
68476;BME280;55464;48.266;14.188;2024-02-21T09:29:04;98390.34;;;12.89;43.88
68476;BME280;55464;48.266;14.188;2024-02-21T09:31:30;98384.81;;;12.89;43.68
68476;BME280;55464;48.266;14.188;2024-02-21T09:33:55;98392.03;;;12.94;43.32
68476;BME280;55464;48.266;14.188;2024-02-21T09:36:20;98389.75;;;12.96;43.83
68476;BME280;55464;48.266;14.188;2024-02-21T09:38:46;98399.31;;;12.98;44.27
68476;BME280;55464;48.266;14.188;2024-02-21T09:41:16;98367.84;;;12.91;43.86
68476;BME280;55464;48.266;14.188;2024-02-21T09:43:45;98382.72;;;12.98;44.03
68476;BME280;55464;48.266;14.188;2024-02-21T09:46:18;98383.63;;;13.02;44.08
68476;BME280;55464;48.266;14.188;2024-02-21T09:51:18;98380.84;;;13.02;44.00
68476;BME280;55464;48.266;14.188;2024-02-21T09:53:46;98385.03;;;13.09;43.76
68476;BME280;55464;48.266;14.188;2024-02-21T09:56:12;98371.19;;;13.09;43.58
68476;BME280;55464;48.266;14.188;2024-02-21T09:58:39;98385.13;;;13.12;43.48
68476;BME280;55464;48.266;14.188;2024-02-21T10:01:04;98374.06;;;13.12;43.21
68476;BME280;55464;48.266;14.188;2024-02-21T10:03:32;98377.75;;;13.16;43.30
68476;BME280;55464;48.266;14.188;2024-02-21T10:05:58;98367.63;;;13.20;43.67
68476;BME280;55464;48.266;14.188;2024-02-21T10:08:26;98367.84;;;13.28;43.80
68476;BME280;55464;48.266;14.188;2024-02-21T10:10:52;98372.34;;;13.32;43.53
68476;BME280;55464;48.266;14.188;2024-02-21T10:13:28;98368.75;;;13.32;43.28
68476;BME280;55464;48.266;14.188;2024-02-21T10:16:20;98364.63;;;13.38;43.59
68476;BME280;55464;48.266;14.188;2024-02-21T10:18:46;98349.50;;;13.35;43.17
68476;BME280;55464;48.266;14.188;2024-02-21T10:21:12;98360.19;;;13.49;44.74
68476;BME280;55464;48.266;14.188;2024-02-21T10:23:55;98367.38;;;13.50;43.97
68476;BME280;55464;48.266;14.188;2024-02-21T10:26:21;98369.28;;;13.62;43.20
68476;BME280;55464;48.266;14.188;2024-02-21T10:28:47;98360.63;;;13.64;43.22
68476;BME280;55464;48.266;14.188;2024-02-21T10:31:31;98354.03;;;13.68;42.85
68476;BME280;55464;48.266;14.188;2024-02-21T10:34:01;98353.34;;;13.71;42.85
68476;BME280;55464;48.266;14.188;2024-02-21T10:36:30;98343.84;;;13.72;43.15
68476;BME280;55464;48.266;14.188;2024-02-21T10:38:56;98331.72;;;13.77;42.95
68476;BME280;55464;48.266;14.188;2024-02-21T10:41:22;98332.19;;;13.79;42.91
68476;BME280;55464;48.266;14.188;2024-02-21T10:43:53;98318.41;;;13.83;42.94
68476;BME280;55464;48.266;14.188;2024-02-21T10:46:21;98302.50;;;13.79;42.78
68476;BME280;55464;48.266;14.188;2024-02-21T10:48:48;98297.44;;;13.82;42.43
68476;BME280;55464;48.266;14.188;2024-02-21T10:51:18;98299.94;;;13.87;42.73
68476;BME280;55464;48.266;14.188;2024-02-21T10:54:16;98312.13;;;13.98;42.66
68476;BME280;55464;48.266;14.188;2024-02-21T10:56:44;98299.31;;;13.93;42.00
68476;BME280;55464;48.266;14.188;2024-02-21T10:59:13;98282.69;;;13.93;42.02
68476;BME280;55464;48.266;14.188;2024-02-21T11:01:39;98274.63;;;13.88;41.89
68476;BME280;55464;48.266;14.188;2024-02-21T11:04:06;98278.06;;;13.97;41.78
68476;BME280;55464;48.266;14.188;2024-02-21T11:06:36;98268.47;;;13.95;40.89
68476;BME280;55464;48.266;14.188;2024-02-21T11:11:28;98251.50;;;13.96;41.26
68476;BME280;55464;48.266;14.188;2024-02-21T11:14:06;98254.28;;;13.96;40.42
68476;BME280;55464;48.266;14.188;2024-02-21T11:16:37;98241.56;;;13.95;39.71
68476;BME280;55464;48.266;14.188;2024-02-21T11:19:23;98243.72;;;14.02;40.10
68476;BME280;55464;48.266;14.188;2024-02-21T11:21:50;98252.88;;;14.18;40.80
68476;BME280;55464;48.266;14.188;2024-02-21T11:24:32;98246.97;;;14.20;40.55
68476;BME280;55464;48.266;14.188;2024-02-21T11:27:14;98255.75;;;14.22;40.09
68476;BME280;55464;48.266;14.188;2024-02-21T11:29:44;98248.66;;;14.25;39.59
68476;BME280;55464;48.266;14.188;2024-02-21T11:32:11;98236.34;;;14.22;39.90
68476;BME280;55464;48.266;14.188;2024-02-21T11:34:37;98243.66;;;14.30;39.90
68476;BME280;55464;48.266;14.188;2024-02-21T11:37:13;98235.41;;;14.34;39.79
68476;BME280;55464;48.266;14.188;2024-02-21T11:39:41;98218.69;;;14.30;40.04
68476;BME280;55464;48.266;14.188;2024-02-21T11:42:07;98221.09;;;14.32;40.00
68476;BME280;55464;48.266;14.188;2024-02-21T11:44:35;98224.06;;;14.39;39.17
68476;BME280;55464;48.266;14.188;2024-02-21T11:47:00;98224.53;;;14.41;39.00
68476;BME280;55464;48.266;14.188;2024-02-21T11:49:28;98219.84;;;14.45;39.00
68476;BME280;55464;48.266;14.188;2024-02-21T11:51:58;98230.22;;;14.48;38.98
68476;BME280;55464;48.266;14.188;2024-02-21T11:54:24;98209.13;;;14.44;39.48
68476;BME280;55464;48.266;14.188;2024-02-21T11:56:49;98215.72;;;14.55;39.86
68476;BME280;55464;48.266;14.188;2024-02-21T11:59:15;98210.31;;;14.59;39.92
68476;BME280;55464;48.266;14.188;2024-02-21T12:01:40;98189.22;;;14.57;39.43
68476;BME280;55464;48.266;14.188;2024-02-21T12:04:06;98188.63;;;14.64;38.95
68476;BME280;55464;48.266;14.188;2024-02-21T12:06:32;98194.56;;;14.82;39.50
68476;BME280;55464;48.266;14.188;2024-02-21T12:08:58;98192.94;;;14.81;38.56
68476;BME280;55464;48.266;14.188;2024-02-21T12:11:24;98195.44;;;14.86;37.44
68476;BME280;55464;48.266;14.188;2024-02-21T12:14:03;98185.91;;;15.03;36.96
68476;BME280;55464;48.266;14.188;2024-02-21T12:16:31;98184.25;;;15.18;37.45
68476;BME280;55464;48.266;14.188;2024-02-21T12:18:57;98181.69;;;15.29;36.99
68476;BME280;55464;48.266;14.188;2024-02-21T12:21:26;98175.06;;;15.37;36.34
68476;BME280;55464;48.266;14.188;2024-02-21T12:23:55;98162.44;;;15.40;36.83
68476;BME280;55464;48.266;14.188;2024-02-21T12:26:21;98156.00;;;15.55;36.51
68476;BME280;55464;48.266;14.188;2024-02-21T12:28:46;98154.69;;;15.72;37.85
68476;BME280;55464;48.266;14.188;2024-02-21T12:31:12;98150.91;;;15.80;36.85
68476;BME280;55464;48.266;14.188;2024-02-21T12:33:38;98135.31;;;15.76;35.91
68476;BME280;55464;48.266;14.188;2024-02-21T12:36:04;98138.38;;;15.90;36.24
68476;BME280;55464;48.266;14.188;2024-02-21T12:38:29;98133.31;;;15.96;36.11
68476;BME280;55464;48.266;14.188;2024-02-21T12:40:55;98140.69;;;16.11;35.22
68476;BME280;55464;48.266;14.188;2024-02-21T12:43:22;98132.09;;;16.20;34.82
68476;BME280;55464;48.266;14.188;2024-02-21T12:45:48;98127.44;;;16.28;35.65
68476;BME280;55464;48.266;14.188;2024-02-21T12:48:14;98127.59;;;16.38;34.98
68476;BME280;55464;48.266;14.188;2024-02-21T12:50:48;98118.22;;;16.50;34.39
68476;BME280;55464;48.266;14.188;2024-02-21T12:53:15;98110.44;;;16.63;34.81
68476;BME280;55464;48.266;14.188;2024-02-21T12:55:41;98113.75;;;16.72;35.76